Time;durP1;ratioP1;P1;durP2;ratioP2;P2;SDS_P1;SDS_P2;PMS_P1;PMS_P2;Temp;Humidity;BMP_temperature;BMP_pressure;BME280_temperature;BME280_humidity;BME280_pressure;Samples;Min_cycle;Max_cycle;Signal;HPM_P1;HPM_P2
2022/04/29 00:02:10;;;;;;;;;;;;;;;;;;4409448;32;20435;-69
2022/04/29 00:04:36;;;;;;;14.10;7.10;;;;;;;;;;4407862;32;19976;-69
2022/04/29 00:07:01;;;;;;;;;;;;;;;;;;4408242;32;20023;-68
2022/04/29 00:09:26;;;;;;;14.38;6.75;;;;;;;;;;4408992;32;19960;-69
2022/04/29 00:11:52;;;;;;;;;;;;;;;;;;4408698;32;20027;-69
2022/04/29 00:14:18;;;;;;;14.20;6.90;;;;;;;;;;4408692;32;19989;-70
2022/04/29 00:16:43;;;;;;;;;;;;;;;;;;4408037;32;20057;-68
2022/04/29 00:19:08;;;;;;;14.27;7.18;;;;;;;;;;4407037;32;19989;-71
2022/04/29 00:21:33;;;;;;;;;;;;;;;;;;4407700;32;20030;-68
2022/04/29 00:23:58;;;;;;;13.23;7.07;;;;;;;;;;4407813;32;19948;-69
2022/04/29 00:26:23;;;;;;;;;;;;;;;;;;4407629;32;20049;-69
2022/04/29 00:28:48;;;;;;;12.88;6.50;;;;;;;;;;4408388;32;19977;-68
2022/04/29 00:31:13;;;;;;;;;;;;;;;;;;4407345;32;20022;-69
2022/04/29 00:33:39;;;;;;;14.10;7.22;;;;;;;;;;4393252;32;20015;-69
2022/04/29 00:36:04;;;;;;;;;;;;;;;;;;4407530;32;20049;-69
2022/04/29 00:38:29;;;;;;;16.87;7.32;;;;;;;;;;4423965;26;20398;-76
2022/04/29 00:40:54;;;;;;;;;;;;;;;;;;4421685;32;20056;-76
2022/04/29 00:43:19;;;;;;;15.27;7.57;;;;;;;;;;4422827;32;19933;-76
2022/04/29 00:45:45;;;;;;;;;;;;;;;;;;4413646;32;20133;-76
2022/04/29 00:48:10;;;;;;;16.12;7.47;;;;;;;;;;4392447;32;20376;-75
2022/04/29 00:50:35;;;;;;;;;;;;;;;;;;4406942;32;20083;-75
2022/04/29 00:53:01;;;;;;;23.12;7.50;;;;;;;;;;4394458;32;19942;-75
2022/04/29 00:55:27;;;;;;;17.25;8.57;;;;;;;;;;4422560;32;20396;-75
2022/04/29 00:57:52;;;;;;;;;;;;;;;;;;4421246;32;20030;-75
2022/04/29 01:00:18;;;;;;;11.65;7.30;;;;;;;;;;4406914;32;20308;-75
2022/04/29 01:02:43;;;;;;;;;;;;;;;;;;4421671;32;20204;-75
2022/04/29 01:05:11;;;;;;;10.32;7.37;;;;;;;;;;4408750;32;19995;-75
2022/04/29 01:07:44;;;;;;;17.62;8.75;;;;;;;;;;4407341;32;20057;-75
2022/04/29 01:10:10;;;;;;;13.15;7.78;;;;;;;;;;4409288;32;20034;-75
2022/04/29 01:12:37;;;;;;;16.40;8.57;;;;;;;;;;4418981;32;20068;-76
2022/04/29 01:15:07;;;;;;;12.05;8.13;;;;;;;;;;4400162;32;20453;-75
2022/04/29 01:17:36;;;;;;;23.73;9.35;;;;;;;;;;4422158;32;20151;-75
2022/04/29 01:20:06;;;;;;;21.90;8.35;;;;;;;;;;4410824;32;20026;-75
2022/04/29 01:22:31;;;;;;;15.02;8.30;;;;;;;;;;4408742;32;20030;-75
2022/04/29 01:24:57;;;;;;;;;;;;;;;;;;4407784;32;20126;-75
2022/04/29 01:27:22;;;;;;;10.90;7.28;;;;;;;;;;4420138;32;19941;-75
2022/04/29 01:29:47;;;;;;;;;;;;;;;;;;4415356;32;20056;-75
2022/04/29 01:32:13;;;;;;;16.42;8.55;;;;;;;;;;4393461;32;19942;-75
2022/04/29 01:34:38;;;;;;;;;;;;;;;;;;4408240;32;20481;-76
2022/04/29 01:37:04;;;;;;;12.27;7.53;;;;;;;;;;4407397;32;19937;-73
2022/04/29 01:39:29;;;;;;;;;;;;;;;;;;4411124;32;20064;-75
2022/04/29 01:41:54;;;;;;;13.93;9.10;;;;;;;;;;4422655;32;19941;-76
2022/04/29 01:44:19;;;;;;;;;;;;;;;;;;4422601;32;20035;-75
2022/04/29 01:46:46;;;;;;;16.55;8.02;;;;;;;;;;4407655;32;19948;-76
2022/04/29 01:49:11;;;;;;;17.70;8.48;;;;;;;;;;4421071;32;20030;-76
2022/04/29 01:51:37;;;;;;;;;;;;;;;;;;4421688;32;20017;-76
2022/04/29 01:54:02;;;;;;;12.30;7.90;;;;;;;;;;4422449;32;19933;-76
2022/04/29 01:56:33;;;;;;;;;;;;;;;;;;4421989;32;20415;-75
2022/04/29 01:59:00;;;;;;;16.92;8.48;;;;;;;;;;4420716;32;19995;-75
2022/04/29 02:01:26;;;;;;;16.92;9.02;;;;;;;;;;4408375;32;20025;-75
2022/04/29 02:03:52;;;;;;;16.65;9.90;;;;;;;;;;4421252;32;20026;-75
2022/04/29 02:06:17;;;;;;;;;;;;;;;;;;4421932;32;20501;-75
2022/04/29 02:08:42;;;;;;;23.02;9.63;;;;;;;;;;4421426;32;19941;-75
2022/04/29 02:11:07;;;;;;;;;;;;;;;;;;4407530;32;20534;-74
2022/04/29 02:13:36;;;;;;;19.58;9.82;;;;;;;;;;4421432;32;19949;-75
2022/04/29 02:16:01;;;;;;;16.60;8.80;;;;;;;;;;4420957;32;20034;-75
2022/04/29 02:18:26;;;;;;;;;;;;;;;;;;4420770;32;20079;-76
2022/04/29 02:20:51;;;;;;;19.35;8.90;;;;;;;;;;4420500;32;19937;-76
2022/04/29 02:23:16;;;;;;;;;;;;;;;;;;4421505;32;20203;-76
2022/04/29 02:25:41;;;;;;;16.67;9.25;;;;;;;;;;4407322;32;20354;-75
2022/04/29 02:28:07;;;;;;;;;;;;;;;;;;4422419;32;20044;-75
2022/04/29 02:30:33;;;;;;;17.83;8.60;;;;;;;;;;4420862;32;19949;-75
2022/04/29 02:32:58;;;;;;;;;;;;;;;;;;4422006;32;20097;-75
2022/04/29 02:35:23;;;;;;;19.40;8.48;;;;;;;;;;4417364;32;19952;-75
2022/04/29 02:37:48;;;;;;;;;;;;;;;;;;4422319;32;20408;-75
2022/04/29 02:40:14;;;;;;;15.82;8.88;;;;;;;;;;4421193;32;19944;-75
2022/04/29 02:42:39;;;;;;;;;;;;;;;;;;4420945;32;20121;-76
2022/04/29 02:45:05;;;;;;;18.25;8.82;;;;;;;;;;4414018;32;19941;-76
2022/04/29 02:47:30;;;;;;;;;;;;;;;;;;4406244;32;20122;-75
2022/04/29 02:49:55;;;;;;;19.50;8.93;;;;;;;;;;4414879;32;19984;-76
2022/04/29 02:52:20;;;;;;;;;;;;;;;;;;4421179;32;20323;-76
2022/04/29 02:54:46;;;;;;;22.50;9.63;;;;;;;;;;4420359;32;19968;-76
2022/04/29 02:57:11;;;;;;;;;;;;;;;;;;4419966;32;20117;-75
2022/04/29 02:59:36;;;;;;;14.25;9.60;;;;;;;;;;4406458;32;20326;-75
2022/04/29 03:02:01;;;;;;;;;;;;;;;;;;4421206;32;20211;-75
2022/04/29 03:04:26;;;;;;;16.62;8.30;;;;;;;;;;4420494;32;20017;-77
2022/04/29 03:06:53;;;;;;;;;;;;;;;;;;4407475;32;20142;-76
2022/04/29 03:09:20;;;;;;;19.33;10.68;;;;;;;;;;4420355;32;19957;-75
2022/04/29 03:11:47;;;;;;;19.70;9.38;;;;;;;;;;4420523;32;20419;-75
2022/04/29 03:14:13;;;;;;;16.75;9.38;;;;;;;;;;4406921;32;20065;-75
2022/04/29 03:16:38;;;;;;;;;;;;;;;;;;4408225;32;20093;-75
2022/04/29 03:19:04;;;;;;;19.60;9.52;;;;;;;;;;4420442;32;19937;-70
2022/04/29 03:21:29;;;;;;;19.42;9.90;;;;;;;;;;4420805;32;20021;-75
2022/04/29 03:23:55;;;;;;;;;;;;;;;;;;4407100;32;20075;-76
2022/04/29 03:26:20;;;;;;;18.37;9.18;;;;;;;;;;4420190;32;19970;-75
2022/04/29 03:28:45;;;;;;;;;;;;;;;;;;4420414;32;20022;-75
2022/04/29 03:31:11;;;;;;;23.02;10.38;;;;;;;;;;4421985;32;19944;-75
2022/04/29 03:33:36;;;;;;;;;;;;;;;;;;4406156;32;20073;-75
2022/04/29 03:36:01;;;;;;;18.52;8.75;;;;;;;;;;4421369;32;19937;-74
2022/04/29 03:38:26;;;;;;;;;;;;;;;;;;4420888;32;20022;-75
2022/04/29 03:40:52;;;;;;;21.55;9.43;;;;;;;;;;4420215;32;19967;-75
2022/04/29 03:43:18;;;;;;;16.27;9.43;;;;;;;;;;4420232;32;20030;-75
2022/04/29 03:45:43;;;;;;;;;;;;;;;;;;4406697;32;20077;-76
2022/04/29 03:48:09;;;;;;;19.25;9.15;;;;;;;;;;4420510;32;19963;-75
2022/04/29 03:50:34;;;;;;;;;;;;;;;;;;4420871;32;20068;-75
2022/04/29 03:53:01;;;;;;;17.83;8.73;;;;;;;;;;4420134;32;19978;-76
2022/04/29 03:55:28;;;;;;;19.02;9.32;;;;;;;;;;4406313;32;20397;-75
2022/04/29 03:57:54;;;;;;;16.48;9.45;;;;;;;;;;4420299;32;20067;-75
2022/04/29 04:00:19;;;;;;;;;;;;;;;;;;4419883;32;20022;-76
2022/04/29 04:02:44;;;;;;;26.02;9.23;;;;;;;;;;4420064;32;19933;-76
2022/04/29 04:05:09;;;;;;;;;;;;;;;;;;4421005;32;20125;-75
2022/04/29 04:07:35;;;;;;;23.33;11.30;;;;;;;;;;4406058;32;19933;-75
2022/04/29 04:10:01;;;;;;;;;;;;;;;;;;4421073;32;20434;-75
2022/04/29 04:12:26;;;;;;;20.33;8.98;;;;;;;;;;4420426;32;19972;-75
2022/04/29 04:14:51;;;;;;;;;;;;;;;;;;4420256;32;20478;-77
2022/04/29 04:17:17;;;;;;;20.37;9.63;;;;;;;;;;4405839;32;20555;-75
2022/04/29 04:19:42;;;;;;;;;;;;;;;;;;4405659;32;20035;-75
2022/04/29 04:22:07;;;;;;;25.83;11.80;;;;;;;;;;4420536;32;20015;-75
2022/04/29 04:24:32;;;;;;;;;;;;;;;;;;4419994;32;20163;-75
2022/04/29 04:26:57;;;;;;;18.87;9.48;;;;;;;;;;4419373;32;19980;-74
2022/04/29 04:29:22;;;;;;;;;;;;;;;;;;4420796;32;20052;-74
2022/04/29 04:31:48;;;;;;;19.98;9.63;;;;;;;;;;4419995;32;20002;-75
2022/04/29 04:36:57;;;;;;;19.00;8.70;;;;;;;;;;4419802;32;20024;-76
2022/04/29 04:39:22;;;;;;;;;;;;;;;;;;4406449;32;20037;-76
2022/04/29 04:41:48;;;;;;;18.45;9.00;;;;;;;;;;4405661;32;19940;-74
2022/04/29 04:44:13;;;;;;;23.10;8.68;;;;;;;;;;4419426;32;20046;-75
2022/04/29 04:46:39;;;;;;;;;;;;;;;;;;4421547;32;20067;-76
2022/04/29 04:49:05;;;;;;;22.90;8.90;;;;;;;;;;4422059;32;19952;-75
2022/04/29 04:51:30;;;;;;;;;;;;;;;;;;4422839;32;20056;-74
2022/04/29 04:53:55;;;;;;;21.23;9.93;;;;;;;;;;4423828;32;19945;-75
2022/04/29 04:56:20;;;;;;;;;;;;;;;;;;4419971;32;20041;-75
2022/04/29 04:58:46;;;;;;;23.60;8.60;;;;;;;;;;4408577;32;20019;-76
2022/04/29 05:01:11;;;;;;;;;;;;;;;;;;4422814;32;20118;-75
2022/04/29 05:03:36;;;;;;;24.98;10.95;;;;;;;;;;4408286;32;19961;-72
2022/04/29 05:06:01;;;;;;;;;;;;;;;;;;4422243;32;20018;-73
2022/04/29 05:08:26;;;;;;;22.92;8.93;;;;;;;;;;4422689;32;19937;-76
2022/04/29 05:10:52;;;;;;;;;;;;;;;;;;4417199;32;20414;-75
2022/04/29 05:13:17;;;;;;;21.73;8.90;;;;;;;;;;4399095;32;20335;-76
2022/04/29 05:15:42;;;;;;;;;;;;;;;;;;4422834;32;20045;-75
2022/04/29 05:18:08;;;;;;;19.00;9.40;;;;;;;;;;4421645;32;20349;-75
2022/04/29 05:20:33;;;;;;;;;;;;;;;;;;4419144;32;20362;-75
2022/04/29 05:22:58;;;;;;;25.98;10.35;;;;;;;;;;4416826;32;19938;-75
2022/04/29 05:25:23;;;;;;;;;;;;;;;;;;4410398;32;20229;-75
2022/04/29 05:27:49;;;;;;;15.68;8.68;;;;;;;;;;4406336;32;19937;-74
2022/04/29 05:30:14;;;;;;;;;;;;;;;;;;4421600;32;20082;-75
2022/04/29 05:32:39;;;;;;;21.55;9.02;;;;;;;;;;4422835;32;19933;-74
2022/04/29 05:35:05;;;;;;;;;;;;;;;;;;4422349;32;20121;-76
2022/04/29 05:37:31;;;;;;;17.48;8.85;;;;;;;;;;4422428;32;20386;-74
2022/04/29 05:42:43;;;;;;;18.73;9.13;;;;;;;;;;4427203;32;19967;-74
2022/04/29 05:45:08;;;;;;;36.63;11.45;;;;;;;;;;4409153;32;20018;-76
2022/04/29 05:47:33;;;;;;;;;;;;;;;;;;4422552;32;20435;-75
2022/04/29 05:49:59;;;;;;;15.70;9.10;;;;;;;;;;4421191;32;20290;-75
2022/04/29 05:52:24;;;;;;;;;;;;;;;;;;4408362;32;20067;-76
2022/04/29 05:54:52;;;;;;;18.27;8.95;;;;;;;;;;4407989;32;20298;-75
2022/04/29 05:57:17;;;;;;;22.37;9.02;;;;;;;;;;4420358;32;20063;-75
2022/04/29 05:59:42;;;;;;;;;;;;;;;;;;4421581;32;20081;-76
2022/04/29 06:02:08;;;;;;;25.92;10.55;;;;;;;;;;4420238;32;19945;-75
2022/04/29 06:04:33;;;;;;;;;;;;;;;;;;4407699;32;20134;-72
2022/04/29 06:06:59;;;;;;;19.80;10.90;;;;;;;;;;4421544;32;19944;-72
2022/04/29 06:09:27;;;;;;;;;;;;;;;;;;4422130;32;20396;-75
2022/04/29 06:11:52;;;;;;;25.95;9.10;;;;;;;;;;4420936;32;19997;-75
2022/04/29 06:14:18;;;;;;;;;;;;;;;;;;4421347;32;20371;-76
2022/04/29 06:16:46;;;;;;;21.65;9.60;;;;;;;;;;4417921;32;19949;-75
2022/04/29 06:19:12;;;;;;;15.27;10.10;;;;;;;;;;4411824;32;20164;-75
2022/04/29 06:21:38;;;;;;;;;;;;;;;;;;4419410;32;20078;-74
2022/04/29 06:24:04;;;;;;;15.15;8.70;;;;;;;;;;4404696;32;19945;-74
2022/04/29 06:26:29;;;;;;;;;;;;;;;;;;4420777;32;20434;-75
2022/04/29 06:28:54;;;;;;;18.10;9.98;;;;;;;;;;4405899;32;19974;-74
2022/04/29 06:31:19;;;;;;;;;;;;;;;;;;4406153;32;20188;-74
2022/04/29 06:33:48;;;;;;;20.02;8.75;;;;;;;;;;4420936;32;20313;-73
2022/04/29 06:36:13;;;;;;;19.15;9.05;;;;;;;;;;4421342;32;20440;-76
2022/04/29 06:38:38;;;;;;;;;;;;;;;;;;4408613;32;20026;-75
2022/04/29 06:41:03;;;;;;;14.85;8.15;;;;;;;;;;4421918;32;19936;-76
2022/04/29 06:43:32;;;;;;;;;;;;;;;;;;4407296;32;20372;-75
2022/04/29 06:45:57;;;;;;;23.83;9.68;;;;;;;;;;4407022;32;19988;-75
2022/04/29 06:48:22;;;;;;;;;;;;;;;;;;4420828;32;20118;-75
2022/04/29 06:50:47;;;;;;;23.65;9.73;;;;;;;;;;4418046;32;19991;-75
2022/04/29 06:53:16;;;;;;;;;;;;;;;;;;4413263;32;20170;-75
2022/04/29 06:55:47;;;;;;;16.23;7.55;;;;;;;;;;4405817;32;20352;-75
2022/04/29 06:58:12;;;;;;;17.17;8.48;;;;;;;;;;4420420;32;20079;-77
2022/04/29 07:00:42;;;;;;;;;;;;;;;;;;4421282;32;20391;-71
2022/04/29 07:03:15;;;;;;;19.80;8.80;;;;;;;;;;4419661;32;20336;-75
2022/04/29 07:05:41;;;;;;;17.45;9.65;;;;;;;;;;4406924;32;20026;-75
2022/04/29 07:08:06;;;;;;;;;;;;;;;;;;4420183;32;20150;-75
2022/04/29 07:10:31;;;;;;;20.27;8.27;;;;;;;;;;4405918;32;19937;-75
2022/04/29 07:12:57;;;;;;;;;;;;;;;;;;4406423;32;20136;-75
2022/04/29 07:15:22;;;;;;;27.48;9.70;;;;;;;;;;4419984;32;19952;-75
2022/04/29 07:17:47;;;;;;;;;;;;;;;;;;4419006;32;20070;-76
2022/04/29 07:20:13;;;;;;;22.98;10.77;;;;;;;;;;4410886;32;19945;-75
2022/04/29 07:22:39;;;;;;;19.90;8.75;;;;;;;;;;4404552;32;20199;-75
2022/04/29 07:25:08;;;;;;;21.37;9.45;;;;;;;;;;4416413;32;20085;-75
2022/04/29 07:27:36;;;;;;;19.05;8.75;;;;;;;;;;4420506;32;20060;-74
2022/04/29 07:30:03;;;;;;;13.65;8.63;;;;;;;;;;4420660;32;20056;-74
2022/04/29 07:32:28;;;;;;;21.02;8.40;;;;;;;;;;4420986;32;20071;-75
2022/04/29 07:43:06;;;;;;;16.73;7.57;;;;;;;;;;4420875;32;20090;-76
2022/04/29 07:45:31;;;;;;;;;;;;;;;;;;4407343;32;20404;-76
2022/04/29 07:47:59;;;;;;;17.60;8.70;;;;;;;;;;4420157;32;19977;-75
2022/04/29 07:50:24;;;;;;;15.13;7.15;;;;;;;;;;4419517;32;20468;-75
2022/04/29 07:52:49;;;;;;;;;;;;;;;;;;4421114;32;20034;-75
2022/04/29 07:55:15;;;;;;;15.35;7.87;;;;;;;;;;4420215;32;19933;-75
2022/04/29 07:57:43;;;;;;;;;;;;;;;;;;4419692;32;20022;-75
2022/04/29 08:00:10;;;;;;;13.85;8.10;;;;;;;;;;4419910;32;19974;-75
2022/04/29 08:02:35;;;;;;;15.85;7.62;;;;;;;;;;4420776;32;20042;-75
2022/04/29 08:05:00;;;;;;;;;;;;;;;;;;4419946;32;20430;-75
2022/04/29 08:07:25;;;;;;;15.93;7.78;;;;;;;;;;4419590;32;20363;-75
2022/04/29 08:09:51;;;;;;;;;;;;;;;;;;4391490;32;20034;-74
2022/04/29 08:12:21;;;;;;;17.52;7.90;;;;;;;;;;4391174;32;19956;-76
2022/04/29 08:14:46;;;;;;;12.45;7.45;;;;;;;;;;4414813;32;20034;-75
2022/04/29 08:17:12;;;;;;;;;;;;;;;;;;4417811;32;20018;-75
2022/04/29 08:19:37;;;;;;;22.25;7.87;;;;;;;;;;4421064;32;20365;-77
2022/04/29 08:22:03;;;;;;;;;;;;;;;;;;4422801;32;20034;-75
2022/04/29 08:24:28;;;;;;;19.55;7.80;;;;;;;;;;4422573;32;20350;-76
2022/04/29 08:26:53;;;;;;;;;;;;;;;;;;4422028;32;20052;-75
2022/04/29 08:29:18;;;;;;;15.70;7.05;;;;;;;;;;4423382;32;19974;-75
2022/04/29 08:31:44;;;;;;;;;;;;;;;;;;4422908;32;20117;-76
2022/04/29 08:34:11;;;;;;;23.48;7.37;;;;;;;;;;4408573;32;19941;-75
2022/04/29 08:36:37;;;;;;;19.42;7.72;;;;;;;;;;4408195;32;20152;-76
2022/04/29 08:39:02;;;;;;;16.30;7.07;;;;;;;;;;4422924;32;20038;-75
2022/04/29 08:41:27;;;;;;;;;;;;;;;;;;4422588;32;20100;-75
2022/04/29 08:43:54;;;;;;;13.88;7.40;;;;;;;;;;4409094;32;19937;-76
2022/04/29 08:46:22;;;;;;;18.37;8.13;;;;;;;;;;4416341;32;20034;-75
2022/04/29 08:48:49;;;;;;;16.50;7.30;;;;;;;;;;4422434;32;20470;-74
2022/04/29 08:51:14;;;;;;;14.77;7.00;;;;;;;;;;4422686;32;20395;-75
2022/04/29 08:53:39;;;;;;;;;;;;;;;;;;4423003;32;20027;-76
2022/04/29 08:58:49;;;;;;;15.70;7.82;;;;;;;;;;4422401;32;20167;-76
2022/04/29 09:01:21;;;;;;;;;;;;;;;;;;4420989;32;20029;-76
2022/04/29 09:03:47;;;;;;;15.65;7.78;;;;;;;;;;4421972;32;20319;-75
2022/04/29 09:06:16;;;;;;;;;;;;;;;;;;4408422;32;20042;-75
2022/04/29 09:08:43;;;;;;;16.35;7.90;;;;;;;;;;4421641;32;20364;-75
2022/04/29 09:11:09;;;;;;;12.25;7.05;;;;;;;;;;4422990;32;20177;-76
2022/04/29 09:13:37;;;;;;;13.38;7.75;;;;;;;;;;4407266;32;20034;-74
2022/04/29 09:16:04;;;;;;;18.45;7.78;;;;;;;;;;4408536;32;20383;-76
2022/04/29 09:18:31;;;;;;;14.90;6.85;;;;;;;;;;4421676;32;20035;-76
2022/04/29 09:20:57;;;;;;;14.18;7.93;;;;;;;;;;4408254;32;20040;-75
2022/04/29 09:23:29;;;;;;;11.77;6.22;;;;;;;;;;4413112;32;20038;-75
2022/04/29 09:25:56;;;;;;;13.60;6.12;;;;;;;;;;4414927;32;20075;-73
2022/04/29 09:28:22;;;;;;;11.45;6.28;;;;;;;;;;4422488;32;20138;-73
2022/04/29 09:30:48;;;;;;;19.85;6.25;;;;;;;;;;4420535;32;20073;-75
2022/04/29 09:33:23;;;;;;;16.02;6.35;;;;;;;;;;4421274;32;20149;-75
2022/04/29 09:35:51;;;;;;;14.15;7.10;;;;;;;;;;4422003;32;20059;-72
2022/04/29 09:41:02;;;;;;;14.07;6.68;;;;;;;;;;4391817;32;20054;-73
2022/04/29 09:43:27;;;;;;;;;;;;;;;;;;4406711;32;20449;-75
2022/04/29 09:46:07;;;;;;;12.60;6.45;;;;;;;;;;4405900;32;20020;-78
2022/04/29 09:48:49;;;;;;;11.20;6.03;;;;;;;;;;4406788;32;20022;-74
2022/04/29 09:51:14;;;;;;;13.57;6.28;;;;;;;;;;4405122;32;20067;-73
2022/04/29 09:53:39;;;;;;;;;;;;;;;;;;4406196;32;20026;-74
2022/04/29 09:56:30;;;;;;;12.75;6.82;;;;;;;;;;4405979;32;19948;-75
2022/04/29 09:58:56;;;;;;;17.02;7.03;;;;;;;;;;4404407;32;20231;-75
2022/04/29 10:01:22;;;;;;;19.35;8.13;;;;;;;;;;4406535;32;20022;-76
2022/04/29 10:03:47;;;;;;;12.95;7.70;;;;;;;;;;4406605;32;20092;-76
2022/04/29 10:06:12;;;;;;;;;;;;;;;;;;4406761;32;20019;-75
2022/04/29 10:08:38;;;;;;;11.40;6.35;;;;;;;;;;4406071;32;19992;-73
2022/04/29 10:11:04;;;;;;;10.40;6.28;;;;;;;;;;4405110;32;20372;-76
2022/04/29 10:13:32;;;;;;;14.05;7.18;;;;;;;;;;4393361;32;20026;-74
2022/04/29 10:15:57;;;;;;;15.95;7.15;;;;;;;;;;4406251;32;20027;-75
2022/04/29 10:21:15;;;;;;;13.10;6.75;;;;;;;;;;4407115;32;20100;-76
2022/04/29 10:23:41;;;;;;;15.73;7.40;;;;;;;;;;4392938;32;20069;-75
2022/04/29 10:26:07;;;;;;;8.32;6.15;;;;;;;;;;4391744;32;20065;-74
2022/04/29 10:28:32;;;;;;;14.07;6.68;;;;;;;;;;4406081;32;20086;-74
2022/04/29 10:30:57;;;;;;;;;;;;;;;;;;4405594;32;20042;-74
2022/04/29 10:33:22;;;;;;;15.60;6.70;;;;;;;;;;4405290;32;19933;-72
2022/04/29 10:35:53;;;;;;;;;;;;;;;;;;4406170;32;20379;-72
2022/04/29 10:38:25;;;;;;;11.75;6.87;;;;;;;;;;4405829;32;19933;-73
2022/04/29 10:41:06;;;;;;;12.13;6.82;;;;;;;;;;4417636;32;20100;-74
2022/04/29 10:43:32;;;;;;;14.57;7.00;;;;;;;;;;4419057;32;20043;-75
2022/04/29 10:46:03;;;;;;;14.70;6.93;;;;;;;;;;4395430;32;20519;-72
2022/04/29 10:48:29;;;;;;;10.88;6.60;;;;;;;;;;4414976;32;20048;-75
2022/04/29 10:50:54;;;;;;;9.48;6.85;;;;;;;;;;4406229;32;20034;-74
2022/04/29 10:53:19;;;;;;;;;;;;;;;;;;4393793;32;20093;-74
2022/04/29 10:55:44;;;;;;;9.02;5.78;;;;;;;;;;4411925;32;19976;-73
2022/04/29 10:58:09;;;;;;;;;;;;;;;;;;4404341;32;20156;-74
2022/04/29 11:00:35;;;;;;;15.02;5.85;;;;;;;;;;4405588;32;19960;-75
2022/04/29 11:03:00;;;;;;;;;;;;;;;;;;4405836;32;20022;-74
2022/04/29 11:05:35;;;;;;;12.40;6.28;;;;;;;;;;4405634;32;20047;-74
2022/04/29 11:08:06;;;;;;;15.07;5.80;;;;;;;;;;4417885;32;20086;-74
2022/04/29 11:10:52;;;;;;;11.85;5.97;;;;;;;;;;4420932;32;20030;-74
2022/04/29 11:13:20;;;;;;;11.75;5.37;;;;;;;;;;4417935;32;20066;-73
2022/04/29 11:15:45;;;;;;;12.88;6.43;;;;;;;;;;4421937;32;20029;-75
2022/04/29 11:18:14;;;;;;;13.77;6.12;;;;;;;;;;4418821;32;20076;-76
2022/04/29 11:20:42;;;;;;;14.98;7.78;;;;;;;;;;4408853;32;20074;-75
2022/04/29 11:25:54;;;;;;;13.68;6.50;;;;;;;;;;4413934;32;20055;-75
2022/04/29 11:28:20;;;;;;;14.60;5.95;;;;;;;;;;4413920;32;20095;-74
2022/04/29 11:30:48;;;;;;;11.70;7.22;;;;;;;;;;4414745;32;20026;-74
2022/04/29 11:33:17;;;;;;;10.98;6.20;;;;;;;;;;4406077;32;20105;-74
2022/04/29 11:35:43;;;;;;;13.48;6.97;;;;;;;;;;4421458;32;20150;-70
2022/04/29 11:38:09;;;;;;;14.40;5.95;;;;;;;;;;4420498;32;20026;-73
2022/04/29 11:40:39;;;;;;;14.70;6.07;;;;;;;;;;4420019;32;20029;-73
2022/04/29 11:43:08;;;;;;;9.52;6.47;;;;;;;;;;4420028;32;20088;-74
2022/04/29 11:45:33;;;;;;;11.48;6.28;;;;;;;;;;4420808;32;20087;-74
2022/04/29 11:48:06;;;;;;;14.55;6.30;;;;;;;;;;4406694;32;20026;-74
2022/04/29 11:50:32;;;;;;;12.77;5.65;;;;;;;;;;4393611;32;20367;-73
2022/04/29 11:53:08;;;;;;;10.18;5.53;;;;;;;;;;4420478;32;20099;-74
2022/04/29 11:55:33;;;;;;;12.27;6.45;;;;;;;;;;4422395;32;20366;-74
2022/04/29 11:57:59;;;;;;;13.48;6.25;;;;;;;;;;4399943;32;20023;-73
2022/04/29 12:00:28;;;;;;;9.20;6.03;;;;;;;;;;4408796;32;20049;-75
2022/04/29 12:02:58;;;;;;;10.65;6.37;;;;;;;;;;4408571;32;20052;-74
2022/04/29 12:05:23;;;;;;;11.95;6.68;;;;;;;;;;4394232;32;20154;-74
2022/04/29 12:07:52;;;;;;;13.62;6.82;;;;;;;;;;4408078;32;20366;-74
2022/04/29 12:10:26;;;;;;;13.48;7.20;;;;;;;;;;4408216;32;20101;-74
2022/04/29 12:12:59;;;;;;;10.82;6.55;;;;;;;;;;4393188;32;20086;-75
2022/04/29 12:15:30;;;;;;;10.35;6.93;;;;;;;;;;4407933;32;20080;-74
2022/04/29 12:18:09;;;;;;;11.18;7.43;;;;;;;;;;4408061;32;20042;-74
2022/04/29 12:20:41;;;;;;;10.60;7.37;;;;;;;;;;4407988;32;20076;-74
2022/04/29 12:23:16;;;;;;;11.88;7.12;;;;;;;;;;4408212;32;20022;-74
2022/04/29 12:25:44;;;;;;;11.30;7.28;;;;;;;;;;4394238;32;20408;-74
2022/04/29 12:28:14;;;;;;;10.63;7.05;;;;;;;;;;4407718;32;20407;-69
2022/04/29 12:36:57;;;;;;;9.88;6.90;;;;;;;;;;4408286;32;20063;-75
2022/04/29 12:39:28;;;;;;;9.63;7.15;;;;;;;;;;4415733;32;20025;-74
2022/04/29 12:42:06;;;;;;;10.68;6.90;;;;;;;;;;4401205;32;20068;-70
2022/04/29 12:47:53;;;;;;;12.30;7.05;;;;;;;;;;4410075;32;20049;-74
2022/04/29 12:50:19;;;;;;;11.45;6.60;;;;;;;;;;4412330;32;20112;-74
2022/04/29 12:53:04;;;;;;;10.52;7.65;;;;;;;;;;4393039;32;20352;-74
2022/04/29 12:55:30;;;;;;;12.20;7.32;;;;;;;;;;4407199;32;20030;-74
2022/04/29 12:58:12;;;;;;;9.02;6.87;;;;;;;;;;4414421;32;20023;-74
2022/04/29 13:00:39;;;;;;;11.30;6.53;;;;;;;;;;4422561;32;20065;-75
2022/04/29 13:03:07;;;;;;;9.35;6.40;;;;;;;;;;4422113;32;20026;-75
2022/04/29 13:05:34;;;;;;;14.05;6.57;;;;;;;;;;4420879;32;20419;-74
2022/04/29 13:08:00;;;;;;;8.30;5.90;;;;;;;;;;4409471;32;20064;-75
2022/04/29 13:10:25;;;;;;;13.45;6.75;;;;;;;;;;4406976;32;20355;-73
2022/04/29 13:13:03;;;;;;;8.75;6.07;;;;;;;;;;4393851;32;20053;-73
2022/04/29 13:15:28;;;;;;;10.65;6.00;;;;;;;;;;4408152;32;20062;-73
2022/04/29 13:17:58;;;;;;;12.05;6.62;;;;;;;;;;4416920;32;20345;-73
2022/04/29 13:20:23;;;;;;;11.80;6.35;;;;;;;;;;4414136;32;20023;-73
2022/04/29 13:22:48;;;;;;;9.45;6.03;;;;;;;;;;4393756;32;20034;-74
2022/04/29 13:25:14;;;;;;;10.55;6.37;;;;;;;;;;4407125;32;20026;-74
2022/04/29 13:27:39;;;;;;;12.20;6.62;;;;;;;;;;4418394;32;20048;-74
2022/04/29 13:30:05;;;;;;;9.40;6.65;;;;;;;;;;4421981;32;20087;-75
2022/04/29 13:32:31;;;;;;;12.45;6.80;;;;;;;;;;4420710;32;20340;-73
2022/04/29 13:34:56;;;;;;;12.52;6.35;;;;;;;;;;4422136;32;20112;-74
2022/04/29 13:37:21;;;;;;;10.40;6.47;;;;;;;;;;4423211;32;20093;-73
2022/04/29 13:39:47;;;;;;;8.55;6.15;;;;;;;;;;4407979;32;20091;-71
2022/04/29 13:42:13;;;;;;;7.62;6.22;;;;;;;;;;4419579;32;20374;-75
2022/04/29 13:44:39;;;;;;;9.68;5.78;;;;;;;;;;4421257;32;20129;-74
2022/04/29 13:47:04;;;;;;;10.73;6.57;;;;;;;;;;4421418;32;20052;-72
2022/04/29 13:49:30;;;;;;;13.73;6.32;;;;;;;;;;4422147;32;20030;-75
2022/04/29 13:51:55;;;;;;;9.35;5.60;;;;;;;;;;4422480;32;20030;-74
2022/04/29 13:54:20;;;;;;;8.48;5.70;;;;;;;;;;4410507;32;20083;-74
2022/04/29 13:56:46;;;;;;;9.15;5.40;;;;;;;;;;4406630;32;20068;-73
2022/04/29 13:59:12;;;;;;;10.20;5.53;;;;;;;;;;4405855;32;20018;-75
2022/04/29 14:01:37;;;;;;;17.90;5.40;;;;;;;;;;4418774;32;20506;-72
2022/04/29 14:04:03;;;;;;;10.68;5.93;;;;;;;;;;4403840;32;20072;-71
2022/04/29 14:06:28;;;;;;;10.50;5.95;;;;;;;;;;4405608;32;20053;-72
2022/04/29 14:08:53;;;;;;;8.80;6.32;;;;;;;;;;4403519;32;20124;-75
2022/04/29 14:11:20;;;;;;;15.18;7.28;;;;;;;;;;4398808;32;20407;-75
2022/04/29 14:13:45;;;;;;;11.25;5.85;;;;;;;;;;4406638;32;20075;-75
2022/04/29 14:16:11;;;;;;;16.40;7.18;;;;;;;;;;4406162;32;20026;-75
2022/04/29 14:18:36;;;;;;;13.02;6.35;;;;;;;;;;4405093;32;20090;-75
2022/04/29 14:21:01;;;;;;;12.20;5.50;;;;;;;;;;4391224;32;20053;-76
2022/04/29 14:23:26;;;;;;;9.95;5.75;;;;;;;;;;4401304;32;20038;-74
2022/04/29 14:25:52;;;;;;;11.35;5.60;;;;;;;;;;4406913;32;20048;-72
2022/04/29 14:28:17;;;;;;;11.85;5.90;;;;;;;;;;4415450;32;20128;-75
2022/04/29 14:30:42;;;;;;;10.88;5.78;;;;;;;;;;4406128;32;20030;-73
2022/04/29 14:33:08;;;;;;;9.82;6.05;;;;;;;;;;4413270;32;20113;-74
2022/04/29 14:35:56;;;;;;;9.75;6.15;;;;;;;;;;4418766;32;20121;-73
2022/04/29 14:38:21;;;;;;;12.13;7.22;;;;;;;;;;4406915;32;20021;-74
2022/04/29 14:40:46;;;;;;;9.82;5.80;;;;;;;;;;4402015;32;20034;-74
2022/04/29 14:43:13;;;;;;;8.93;6.43;;;;;;;;;;4405248;32;20049;-74
2022/04/29 14:45:39;;;;;;;9.93;5.82;;;;;;;;;;4405884;32;20038;-74
2022/04/29 14:48:05;;;;;;;8.80;5.72;;;;;;;;;;4402542;32;20399;-73
2022/04/29 14:50:31;;;;;;;10.95;6.12;;;;;;;;;;4404599;32;20026;-73
2022/04/29 14:52:56;;;;;;;14.50;6.90;;;;;;;;;;4403879;32;20498;-75
2022/04/29 14:55:22;;;;;;;9.52;6.03;;;;;;;;;;4403433;32;20072;-74
2022/04/29 14:57:48;;;;;;;11.88;6.28;;;;;;;;;;4392895;32;20058;-75
2022/04/29 15:00:15;;;;;;;10.73;5.60;;;;;;;;;;4376373;32;20465;-75
2022/04/29 15:02:40;;;;;;;9.07;6.70;;;;;;;;;;4377450;32;20049;-74
2022/04/29 15:05:06;;;;;;;10.15;6.93;;;;;;;;;;4377051;32;20054;-75
2022/04/29 15:07:32;;;;;;;7.32;6.25;;;;;;;;;;4376303;32;20038;-73
2022/04/29 15:15:37;;;;;;;12.15;5.90;;;;;;;;;;4390548;32;20053;-73
2022/04/29 15:18:10;;;;;;;10.05;6.03;;;;;;;;;;4390967;32;20038;-75
2022/04/29 15:20:36;;;;;;;10.18;6.50;;;;;;;;;;4377016;32;20397;-73
2022/04/29 15:23:02;;;;;;;10.50;6.70;;;;;;;;;;4389839;32;20408;-75
2022/04/29 15:25:27;;;;;;;10.18;6.20;;;;;;;;;;4391589;32;20059;-73
2022/04/29 15:27:52;;;;;;;10.13;6.40;;;;;;;;;;4396042;32;20025;-74
2022/04/29 15:30:21;;;;;;;11.80;7.62;;;;;;;;;;4403156;32;20651;-74
2022/04/29 15:32:46;;;;;;;13.07;6.93;;;;;;;;;;4404510;32;20458;-76
2022/04/29 15:35:12;;;;;;;11.75;6.85;;;;;;;;;;4405619;32;20097;-74
2022/04/29 15:37:38;;;;;;;11.20;6.57;;;;;;;;;;4403631;32;20066;-74
2022/04/29 15:40:07;;;;;;;11.63;6.87;;;;;;;;;;4415150;32;20129;-74